createdAt,value
2022-11-09T00:01:30.030Z,100811.66
2022-11-09T00:04:00.082Z,100812.86
2022-11-09T00:06:29.584Z,100813.67
2022-11-09T00:09:01.316Z,100810.62
2022-11-09T00:11:32.439Z,100812.86
2022-11-09T00:14:00.820Z,100810.02
2022-11-09T00:16:28.837Z,100809.55
2022-11-09T00:19:01.057Z,100807.30
2022-11-09T00:21:28.966Z,100805.05
2022-11-09T00:23:57.366Z,100807.02
2022-11-09T00:26:26.427Z,100809.38
2022-11-09T00:28:54.463Z,100808.42
2022-11-09T00:31:24.384Z,100805.19
2022-11-09T00:33:55.574Z,100805.23
2022-11-09T00:36:24.453Z,100800.63
2022-11-09T00:38:58.636Z,100805.55
2022-11-09T00:41:27.732Z,100807.05
2022-11-09T00:43:56.728Z,100806.23
2022-11-09T00:46:25.685Z,100805.60
2022-11-09T00:48:56.169Z,100804.22
2022-11-09T00:51:24.387Z,100800.41
2022-11-09T00:53:55.951Z,100799.20
2022-11-09T00:56:27.112Z,100802.02
2022-11-09T00:58:56.275Z,100801.20
2022-11-09T01:01:28.363Z,100800.30
2022-11-09T01:03:57.656Z,100796.35
2022-11-09T01:06:27.539Z,100796.88
2022-11-09T01:08:55.944Z,100792.73
2022-11-09T01:11:24.988Z,100791.86
2022-11-09T01:13:54.579Z,100789.64
2022-11-09T01:16:24.300Z,100788.02
2022-11-09T01:18:54.657Z,100788.66
2022-11-09T01:21:26.701Z,100785.48
2022-11-09T01:23:56.054Z,100781.84
2022-11-09T01:26:24.133Z,100784.70
2022-11-09T01:28:52.763Z,100786.10
2022-11-09T01:31:22.031Z,100782.61
2022-11-09T01:33:50.392Z,100779.41
2022-11-09T01:36:23.603Z,100776.52
2022-11-09T01:38:51.579Z,100770.69
2022-11-09T01:41:23.457Z,100766.84
2022-11-09T01:44:18.047Z,100767.48
2022-11-09T01:46:49.189Z,100764.02
2022-11-09T01:49:41.073Z,100758.30
2022-11-09T01:52:45.151Z,100756.80
2022-11-09T01:55:21.507Z,100761.02
2022-11-09T01:58:02.481Z,100758.02
2022-11-09T02:00:37.775Z,100752.95
2022-11-09T02:03:28.984Z,100749.37
2022-11-09T02:05:58.895Z,100752.19
2022-11-09T02:08:27.442Z,100754.21
2022-11-09T02:11:08.974Z,100753.21
2022-11-09T02:13:40.872Z,100751.06
2022-11-09T02:16:13.096Z,100747.90
2022-11-09T02:18:49.701Z,100749.27
2022-11-09T02:21:19.662Z,100746.20
2022-11-09T02:23:49.341Z,100747.45
2022-11-09T02:26:43.881Z,100745.69
2022-11-09T02:29:17.432Z,100745.40
2022-11-09T02:31:52.448Z,100746.82
2022-11-09T02:34:23.118Z,100740.97
2022-11-09T02:36:51.258Z,100743.31
2022-11-09T02:39:25.948Z,100739.41
2022-11-09T02:42:02.761Z,100738.41
2022-11-09T02:44:40.958Z,100741.90
2022-11-09T02:47:09.819Z,100744.50
2022-11-09T02:49:37.888Z,100742.14
2022-11-09T02:52:06.062Z,100742.98
2022-11-09T02:54:34.345Z,100743.37
2022-11-09T02:57:02.614Z,100740.29
2022-11-09T02:59:31.094Z,100739.58
2022-11-09T03:01:59.779Z,100738.17
2022-11-09T03:04:29.900Z,100735.59
2022-11-09T03:06:59.338Z,100735.16
2022-11-09T03:09:27.577Z,100731.79
2022-11-09T03:11:58.001Z,100735.27
2022-11-09T03:14:28.267Z,100733.86
2022-11-09T03:16:57.891Z,100733.61
2022-11-09T03:19:26.213Z,100737.83
2022-11-09T03:21:54.341Z,100740.40
2022-11-09T03:24:24.427Z,100740.40
2022-11-09T03:26:53.700Z,100739.15
2022-11-09T03:29:22.177Z,100739.17
2022-11-09T03:31:50.153Z,100742.55
2022-11-09T03:34:18.218Z,100741.77
2022-11-09T03:36:46.288Z,100743.63
2022-11-09T03:39:14.363Z,100743.23
2022-11-09T03:41:42.641Z,100744.52
2022-11-09T03:44:10.708Z,100744.25
2022-11-09T03:46:38.779Z,100744.15
2022-11-09T03:49:06.716Z,100742.76
2022-11-09T03:51:34.762Z,100741.59
2022-11-09T03:54:02.994Z,100738.35
2022-11-09T03:56:31.267Z,100739.60
2022-11-09T03:58:59.235Z,100739.27
2022-11-09T04:01:27.249Z,100737.33
2022-11-09T04:03:55.258Z,100737.47
2022-11-09T04:06:23.369Z,100736.63
2022-11-09T04:08:51.839Z,100738.11
2022-11-09T04:11:20.410Z,100735.39
2022-11-09T04:13:48.565Z,100730.98
2022-11-09T04:16:16.622Z,100729.09
2022-11-09T04:18:44.484Z,100728.98
2022-11-09T04:21:12.590Z,100732.81
2022-11-09T04:23:40.869Z,100728.20
2022-11-09T04:26:10.660Z,100728.90
2022-11-09T04:28:38.647Z,100728.52
2022-11-09T04:31:06.823Z,100726.85
2022-11-09T04:33:34.874Z,100722.20
2022-11-09T04:36:05.137Z,100721.11
2022-11-09T04:38:33.361Z,100720.41
2022-11-09T04:41:02.762Z,100720.58
2022-11-09T04:43:30.799Z,100722.05
2022-11-09T04:46:03.265Z,100722.02
2022-11-09T04:48:33.049Z,100726.02
2022-11-09T04:51:06.793Z,100726.56
2022-11-09T04:53:35.571Z,100730.66
2022-11-09T04:56:05.484Z,100730.98
2022-11-09T04:58:34.177Z,100733.36
2022-11-09T05:01:10.216Z,100733.20
2022-11-09T05:03:39.073Z,100733.33
2022-11-09T05:06:26.959Z,100735.77
2022-11-09T05:08:55.630Z,100737.23
2022-11-09T05:11:24.037Z,100735.34
2022-11-09T05:13:52.404Z,100733.13
2022-11-09T05:16:21.132Z,100733.99
2022-11-09T05:18:49.809Z,100735.91
2022-11-09T05:21:18.865Z,100739.77
2022-11-09T05:23:59.051Z,100743.70
2022-11-09T05:26:31.457Z,100742.85
2022-11-09T05:29:01.116Z,100742.25
2022-11-09T05:31:30.139Z,100743.17
2022-11-09T05:33:59.601Z,100747.10
2022-11-09T05:36:29.410Z,100756.04
2022-11-09T05:38:58.670Z,100761.30
2022-11-09T05:41:32.524Z,100763.38
2022-11-09T05:44:00.651Z,100766.19
2022-11-09T05:46:29.337Z,100765.23
2022-11-09T05:48:57.498Z,100764.77
2022-11-09T05:51:25.887Z,100764.27
2022-11-09T05:53:53.967Z,100763.89
2022-11-09T05:56:22.018Z,100768.27
2022-11-09T05:58:49.973Z,100771.96
2022-11-09T06:01:21.511Z,100772.98
2022-11-09T06:03:49.454Z,100773.80
2022-11-09T06:06:17.960Z,100773.83
2022-11-09T06:08:45.999Z,100774.88
2022-11-09T06:11:18.475Z,100780.27
2022-11-09T06:13:52.491Z,100781.20
2022-11-09T06:16:21.035Z,100781.06
2022-11-09T06:18:51.184Z,100786.00
2022-11-09T06:21:23.472Z,100789.30
2022-11-09T06:23:51.467Z,100790.05
2022-11-09T06:26:19.475Z,100792.67
2022-11-09T06:28:47.483Z,100795.80
2022-11-09T06:31:17.074Z,100795.90
2022-11-09T06:33:45.140Z,100793.75
2022-11-09T06:36:13.802Z,100798.81
2022-11-09T06:38:42.380Z,100800.71
2022-11-09T06:41:11.097Z,100804.02
2022-11-09T06:43:39.110Z,100805.17
2022-11-09T06:46:07.536Z,100806.64
2022-11-09T06:48:35.581Z,100806.52
2022-11-09T06:51:05.425Z,100806.17
2022-11-09T06:53:35.165Z,100800.73
2022-11-09T06:56:04.949Z,100801.84
2022-11-09T06:58:33.292Z,100801.59
2022-11-09T07:01:09.947Z,100801.02
2022-11-09T07:03:39.618Z,100799.03
2022-11-09T07:06:10.099Z,100801.34
2022-11-09T07:08:38.575Z,100796.95
2022-11-09T07:11:09.143Z,100797.08
2022-11-09T07:13:37.193Z,100794.16
2022-11-09T07:16:08.569Z,100792.52
2022-11-09T07:18:36.472Z,100790.36
2022-11-09T07:21:08.877Z,100789.02
2022-11-09T07:23:42.129Z,100788.85
2022-11-09T07:26:10.230Z,100792.15
2022-11-09T07:28:38.713Z,100788.98
2022-11-09T07:31:07.315Z,100791.77
2022-11-09T07:33:36.393Z,100787.69
2022-11-09T07:36:05.895Z,100784.94
2022-11-09T07:38:35.302Z,100785.42
2022-11-09T07:41:03.270Z,100784.42
2022-11-09T07:43:31.336Z,100784.97
2022-11-09T07:46:04.196Z,100785.22
2022-11-09T07:48:32.191Z,100785.90
2022-11-09T07:51:03.424Z,100785.88
2022-11-09T07:53:31.607Z,100786.67
2022-11-09T07:56:01.627Z,100788.11
2022-11-09T07:58:29.694Z,100784.00
2022-11-09T08:00:59.381Z,100783.17
2022-11-09T08:03:27.667Z,100781.68
2022-11-09T08:05:57.922Z,100775.30
2022-11-09T08:08:25.856Z,100774.86
2022-11-09T08:10:56.246Z,100772.99
2022-11-09T08:13:24.685Z,100772.14
2022-11-09T08:15:52.647Z,100770.46
2022-11-09T08:18:22.724Z,100767.38
2022-11-09T08:20:51.344Z,100766.48
2022-11-09T08:23:21.135Z,100767.66
2022-11-09T08:25:51.170Z,100767.26
2022-11-09T08:28:19.674Z,100766.02
2022-11-09T08:30:56.017Z,100765.13
2022-11-09T08:33:23.984Z,100766.30
2022-11-09T08:35:53.317Z,100766.28
2022-11-09T08:38:22.567Z,100770.91
2022-11-09T08:40:50.703Z,100767.91
2022-11-09T08:43:18.581Z,100768.08
2022-11-09T08:45:47.601Z,100766.10
2022-11-09T08:48:15.477Z,100763.93
2022-11-09T08:50:43.348Z,100763.83
2022-11-09T08:53:12.049Z,100761.11
2022-11-09T08:55:40.003Z,100757.30
2022-11-09T08:58:07.841Z,100759.92
2022-11-09T09:00:35.736Z,100758.11
2022-11-09T09:03:08.418Z,100759.35
2022-11-09T09:05:36.849Z,100761.48
2022-11-09T09:08:06.425Z,100761.11
2022-11-09T09:10:37.909Z,100761.45
2022-11-09T09:13:05.924Z,100761.91
2022-11-09T09:15:33.751Z,100757.20
2022-11-09T09:18:03.598Z,100754.94
2022-11-09T09:20:32.795Z,100754.48
2022-11-09T09:23:01.163Z,100754.55
2022-11-09T09:25:28.990Z,100755.82
2022-11-09T09:27:56.909Z,100752.19
2022-11-09T09:30:25.400Z,100752.02
2022-11-09T09:32:58.174Z,100748.83
2022-11-09T09:35:27.776Z,100749.83
2022-11-09T09:37:55.553Z,100746.11
2022-11-09T09:40:35.032Z,100744.11
2022-11-09T09:43:03.661Z,100741.13
2022-11-09T09:45:35.828Z,100737.08
2022-11-09T09:48:22.466Z,100734.96
2022-11-09T09:50:56.276Z,100735.39
2022-11-09T09:53:32.345Z,100736.30
2022-11-09T09:56:16.952Z,100736.23
2022-11-09T09:58:55.993Z,100738.24
2022-11-09T10:01:28.261Z,100736.08
2022-11-09T10:03:56.699Z,100737.89
2022-11-09T10:06:46.649Z,100736.01
2022-11-09T10:09:33.329Z,100732.17
2022-11-09T10:12:22.699Z,100725.27
2022-11-09T10:14:57.890Z,100724.86
2022-11-09T10:17:32.013Z,100722.89
2022-11-09T10:20:05.667Z,100721.49
2022-11-09T10:22:33.418Z,100724.11
2022-11-09T10:25:32.092Z,100723.23
2022-11-09T10:28:13.585Z,100723.34
2022-11-09T10:30:42.374Z,100721.20
2022-11-09T10:33:10.341Z,100722.20
2022-11-09T10:35:47.614Z,100723.55
2022-11-09T10:38:21.681Z,100720.61
2022-11-09T10:41:31.769Z,100716.14
2022-11-09T10:44:19.769Z,100714.14
2022-11-09T10:47:13.990Z,100709.55
2022-11-09T10:50:39.631Z,100707.20
2022-11-09T10:53:28.829Z,100705.14
2022-11-09T10:56:21.838Z,100701.75
2022-11-09T10:59:57.153Z,100698.83
2022-11-09T11:02:46.462Z,100694.11
2022-11-09T11:05:34.618Z,100692.43
2022-11-09T11:08:27.277Z,100689.04
2022-11-09T11:11:37.893Z,100688.08
2022-11-09T11:14:35.409Z,100685.34
2022-11-09T11:17:40.996Z,100678.67
2022-11-09T11:20:29.986Z,100673.35
2022-11-09T11:23:26.275Z,100668.30
2022-11-09T11:26:30.800Z,100663.00
2022-11-09T11:29:35.625Z,100657.95
2022-11-09T11:32:23.672Z,100656.96
2022-11-09T11:35:20.934Z,100651.36
2022-11-09T11:38:26.370Z,100649.86
2022-11-09T11:41:21.074Z,100649.39
2022-11-09T11:44:35.694Z,100650.08
2022-11-09T11:47:36.639Z,100645.60
2022-11-09T11:50:44.779Z,100643.76
2022-11-09T11:53:49.283Z,100643.42
2022-11-09T11:56:44.569Z,100644.32
2022-11-09T11:59:51.011Z,100641.20
2022-11-09T12:03:15.915Z,100636.73
2022-11-09T12:06:14.685Z,100634.66
2022-11-09T12:09:16.813Z,100628.58
2022-11-09T12:12:26.167Z,100630.38
2022-11-09T12:15:39.516Z,100633.14
2022-11-09T12:19:04.592Z,100631.07
2022-11-09T12:22:18.172Z,100628.23
2022-11-09T12:25:14.018Z,100623.54
2022-11-09T12:28:03.571Z,100624.81
2022-11-09T12:31:12.834Z,100624.73
2022-11-09T12:34:44.320Z,100624.67
2022-11-09T12:37:35.706Z,100623.34
2022-11-09T12:40:31.466Z,100619.08
2022-11-09T12:43:34.726Z,100615.30
2022-11-09T12:46:27.834Z,100614.71
2022-11-09T12:49:35.865Z,100615.62
2022-11-09T12:52:28.125Z,100612.84
2022-11-09T12:55:17.639Z,100610.70
2022-11-09T12:58:04.819Z,100605.33
2022-11-09T13:00:54.918Z,100606.60
2022-11-09T13:03:56.421Z,100602.26
2022-11-09T13:07:09.057Z,100601.81
2022-11-09T13:09:57.924Z,100599.11
2022-11-09T13:12:48.551Z,100602.40
2022-11-09T13:15:36.425Z,100601.88
2022-11-09T13:18:30.448Z,100598.38
2022-11-09T13:21:23.591Z,100600.58
2022-11-09T13:24:34.282Z,100600.51
2022-11-09T13:27:32.950Z,100600.98
2022-11-09T13:30:25.309Z,100599.00
2022-11-09T13:33:15.143Z,100601.36
2022-11-09T13:36:08.007Z,100597.73
2022-11-09T13:39:31.761Z,100600.84
2022-11-09T13:42:35.148Z,100604.61
2022-11-09T13:45:24.496Z,100605.11
2022-11-09T13:48:39.182Z,100601.80
2022-11-09T13:51:46.471Z,100599.83
2022-11-09T13:54:37.735Z,100603.24
2022-11-09T13:57:25.834Z,100606.26
2022-11-09T14:00:30.911Z,100605.66
2022-11-09T14:03:24.419Z,100603.33
2022-11-09T14:06:13.720Z,100601.08
2022-11-09T14:09:02.215Z,100602.86
2022-11-09T14:12:10.393Z,100605.70
2022-11-09T14:15:19.807Z,100604.20
2022-11-09T14:18:10.732Z,100602.86
2022-11-09T14:21:25.144Z,100601.94
2022-11-09T14:24:22.276Z,100604.24
2022-11-09T14:27:09.027Z,100605.54
2022-11-09T14:29:59.292Z,100603.71
2022-11-09T14:32:51.293Z,100602.05
2022-11-09T14:35:39.325Z,100602.26
2022-11-09T14:38:25.842Z,100601.19
2022-11-09T14:41:25.628Z,100600.22
2022-11-09T14:44:35.994Z,100602.92
2022-11-09T14:47:29.993Z,100603.77
2022-11-09T14:50:37.500Z,100603.73
2022-11-09T14:53:33.367Z,100602.23
2022-11-09T14:56:21.942Z,100601.28
2022-11-09T14:59:14.335Z,100602.78
2022-11-09T15:02:10.625Z,100601.09
2022-11-09T15:05:02.965Z,100601.04
2022-11-09T15:07:50.005Z,100604.23
2022-11-09T15:10:38.083Z,100598.98
2022-11-09T15:13:37.695Z,100598.58
2022-11-09T15:16:30.973Z,100598.44
2022-11-09T15:19:58.143Z,100600.03
2022-11-09T15:22:57.998Z,100600.92
2022-11-09T15:25:44.839Z,100599.04
2022-11-09T15:28:32.371Z,100601.08
2022-11-09T15:31:19.605Z,100600.11
2022-11-09T15:34:25.204Z,100603.96
2022-11-09T15:37:52.675Z,100606.13
2022-11-09T15:40:39.206Z,100605.88
2022-11-09T15:43:28.026Z,100607.07
2022-11-09T15:46:18.491Z,100607.02
2022-11-09T15:49:25.746Z,100610.23
2022-11-09T15:52:12.863Z,100612.48
2022-11-09T15:54:59.623Z,100615.20
2022-11-09T15:57:46.327Z,100614.96
2022-11-09T16:00:33.058Z,100616.30
2022-11-09T16:03:20.208Z,100615.58
2022-11-09T16:06:10.509Z,100614.33
2022-11-09T16:08:57.208Z,100614.31
2022-11-09T16:11:43.711Z,100614.12
2022-11-09T16:14:32.438Z,100609.55
2022-11-09T16:17:19.037Z,100616.09
2022-11-09T16:20:06.799Z,100616.90
2022-11-09T16:22:53.061Z,100616.70
2022-11-09T16:25:40.104Z,100621.54
2022-11-09T16:28:26.806Z,100623.55
2022-11-09T16:31:13.675Z,100624.39
2022-11-09T16:33:59.913Z,100625.35
2022-11-09T16:36:51.061Z,100626.39
2022-11-09T16:39:41.034Z,100628.73
2022-11-09T16:42:27.725Z,100625.07
2022-11-09T16:45:16.361Z,100622.11
2022-11-09T16:48:10.426Z,100621.39
2022-11-09T16:50:56.987Z,100619.78
2022-11-09T16:53:43.975Z,100624.81
2022-11-09T16:56:33.749Z,100619.22
2022-11-09T16:59:20.478Z,100624.74
2022-11-09T17:02:07.278Z,100625.03
2022-11-09T17:04:57.426Z,100630.32
2022-11-09T17:07:47.185Z,100628.46
2022-11-09T17:10:33.559Z,100625.00
2022-11-09T17:13:20.058Z,100629.59
2022-11-09T17:16:12.858Z,100631.35
2022-11-09T17:19:00.116Z,100630.09
2022-11-09T17:21:47.085Z,100628.84
2022-11-09T17:24:33.741Z,100628.65
2022-11-09T17:27:20.328Z,100628.09
2022-11-09T17:30:07.707Z,100627.73
2022-11-09T17:32:54.688Z,100624.84
2022-11-09T17:35:40.947Z,100626.43
2022-11-09T17:38:31.475Z,100627.16
2022-11-09T17:41:20.334Z,100628.95
2022-11-09T17:44:06.630Z,100630.37
2022-11-09T17:46:53.135Z,100627.88
2022-11-09T17:49:39.881Z,100629.27
2022-11-09T17:52:26.467Z,100629.16
2022-11-09T17:55:13.475Z,100626.30
2022-11-09T17:57:59.857Z,100626.05
2022-11-09T18:00:46.549Z,100624.91
2022-11-09T18:03:34.677Z,100626.03
2022-11-09T18:06:23.847Z,100623.54
2022-11-09T18:09:42.502Z,100621.58
2022-11-09T18:12:19.896Z,100625.23
2022-11-09T18:15:06.571Z,100624.44
2022-11-09T18:17:53.352Z,100621.86
2022-11-09T18:20:40.492Z,100625.84
2022-11-09T18:23:26.865Z,100624.41
2022-11-09T18:26:13.660Z,100624.08
2022-11-09T18:29:00.571Z,100624.65
2022-11-09T18:31:46.813Z,100626.11
2022-11-09T18:34:33.805Z,100624.17
2022-11-09T18:37:20.574Z,100623.45
2022-11-09T18:40:07.939Z,100621.03
2022-11-09T18:42:54.170Z,100621.74
2022-11-09T18:45:40.896Z,100624.50
2022-11-09T18:48:29.627Z,100624.55
2022-11-09T18:51:16.181Z,100621.24
2022-11-09T18:54:02.826Z,100625.29
2022-11-09T18:56:49.399Z,100625.73
2022-11-09T18:59:40.105Z,100626.25
2022-11-09T19:02:26.790Z,100625.52
2022-11-09T19:05:13.883Z,100625.54
2022-11-09T19:08:00.243Z,100622.50
2022-11-09T19:10:46.601Z,100623.98
2022-11-09T19:13:33.260Z,100621.52
2022-11-09T19:16:19.982Z,100621.07
2022-11-09T19:19:07.153Z,100622.53
2022-11-09T19:21:55.893Z,100625.14
2022-11-09T19:24:42.713Z,100620.91
2022-11-09T19:27:29.240Z,100624.10
2022-11-09T19:30:15.961Z,100625.25
2022-11-09T19:33:03.628Z,100626.04
2022-11-09T19:36:23.144Z,100632.60
2022-11-09T19:39:01.233Z,100634.05
2022-11-09T19:41:48.139Z,100634.09
2022-11-09T19:44:34.586Z,100636.56
2022-11-09T19:47:20.910Z,100636.24
2022-11-09T19:50:08.068Z,100637.14
2022-11-09T19:52:55.556Z,100638.29
2022-11-09T19:55:42.473Z,100640.50
2022-11-09T19:58:28.855Z,100641.19
2022-11-09T20:01:16.697Z,100638.06
2022-11-09T20:04:07.677Z,100640.88
2022-11-09T20:06:56.621Z,100642.27
2022-11-09T20:09:43.223Z,100642.55
2022-11-09T20:12:48.490Z,100641.85
2022-11-09T20:15:34.732Z,100644.17
2022-11-09T20:18:23.777Z,100640.21
2022-11-09T20:21:11.049Z,100638.75
2022-11-09T20:23:57.739Z,100637.98
2022-11-09T20:26:44.499Z,100635.36
2022-11-09T20:29:30.759Z,100633.02
2022-11-09T20:32:21.482Z,100630.19
2022-11-09T20:35:09.547Z,100623.59
2022-11-09T20:37:56.146Z,100619.73
2022-11-09T20:40:42.341Z,100616.70
2022-11-09T20:43:29.823Z,100615.52
2022-11-09T20:46:19.832Z,100615.96
2022-11-09T20:49:06.260Z,100614.38
2022-11-09T20:51:52.734Z,100615.22
2022-11-09T20:54:39.112Z,100613.27
2022-11-09T20:57:25.885Z,100609.98
2022-11-09T21:00:12.963Z,100616.56
2022-11-09T21:02:59.599Z,100618.40
2022-11-09T21:05:50.958Z,100618.73
2022-11-09T21:08:38.954Z,100618.59
2022-11-09T21:11:28.800Z,100623.20
2022-11-09T21:14:15.327Z,100621.61
2022-11-09T21:17:01.540Z,100624.05
2022-11-09T21:19:50.522Z,100626.92
2022-11-09T21:22:55.120Z,100625.73
2022-11-09T21:26:02.531Z,100626.63
2022-11-09T21:29:07.599Z,100629.56
2022-11-09T21:31:54.247Z,100631.45
2022-11-09T21:34:41.000Z,100625.84
2022-11-09T21:37:27.752Z,100625.05
2022-11-09T21:40:14.251Z,100624.98
2022-11-09T21:43:00.869Z,100623.27
2022-11-09T21:45:50.334Z,100624.36
2022-11-09T21:48:36.667Z,100625.92
2022-11-09T21:51:23.726Z,100622.29
2022-11-09T21:54:10.626Z,100626.17
2022-11-09T21:56:57.711Z,100622.92
2022-11-09T21:59:44.046Z,100620.39
2022-11-09T22:02:30.651Z,100617.16
2022-11-09T22:05:21.855Z,100617.45
2022-11-09T22:08:10.127Z,100621.93
2022-11-09T22:11:08.407Z,100628.38
2022-11-09T22:14:13.507Z,100628.98
2022-11-09T22:17:00.081Z,100631.97
2022-11-09T22:20:05.360Z,100631.02
2022-11-09T22:22:51.858Z,100634.06
2022-11-09T22:25:37.970Z,100632.24
2022-11-09T22:28:24.328Z,100630.32
2022-11-09T22:31:11.088Z,100626.84
2022-11-09T22:33:57.538Z,100627.00
2022-11-09T22:36:44.177Z,100625.76
2022-11-09T22:39:30.839Z,100626.38
2022-11-09T22:42:17.312Z,100627.52
2022-11-09T22:45:03.981Z,100628.57
2022-11-09T22:47:50.565Z,100627.67
2022-11-09T22:50:37.807Z,100627.64
2022-11-09T22:53:24.106Z,100633.27
2022-11-09T22:56:11.239Z,100630.63
2022-11-09T22:58:57.709Z,100630.79
2022-11-09T23:01:44.442Z,100629.55
2022-11-09T23:04:30.975Z,100627.31
2022-11-09T23:07:17.397Z,100627.02
2022-11-09T23:10:04.753Z,100624.83
2022-11-09T23:12:51.077Z,100626.30
2022-11-09T23:15:37.505Z,100628.38
2022-11-09T23:18:44.247Z,100626.10
2022-11-09T23:21:36.653Z,100628.48
2022-11-09T23:24:42.077Z,100628.77
2022-11-09T23:27:28.437Z,100627.36
2022-11-09T23:30:14.793Z,100628.45
2022-11-09T23:33:01.926Z,100626.73
2022-11-09T23:35:48.235Z,100622.15
2022-11-09T23:38:36.298Z,100617.86
2022-11-09T23:41:22.508Z,100620.30
2022-11-09T23:44:08.864Z,100619.35
2022-11-09T23:46:55.454Z,100619.58
2022-11-09T23:49:41.965Z,100621.56
2022-11-09T23:52:28.474Z,100617.41
2022-11-09T23:55:16.456Z,100616.13
2022-11-09T23:58:04.352Z,100612.55
